createdAt,value
2019-02-28T00:01:19.832Z,6.20
2019-02-28T00:05:25.756Z,6.20
2019-02-28T00:09:25.694Z,6.10
2019-02-28T00:13:24.950Z,6.10
2019-02-28T00:17:23.541Z,6.10
2019-02-28T00:21:22.199Z,6.10
2019-02-28T00:25:20.709Z,6.10
2019-02-28T00:29:19.302Z,6.20
2019-02-28T00:33:18.197Z,6.10
2019-02-28T00:37:16.790Z,6.00
2019-02-28T00:41:15.360Z,6.00
2019-02-28T00:45:16.795Z,6.10
2019-02-28T00:49:15.415Z,6.00
2019-02-28T00:53:14.000Z,6.00
2019-02-28T00:57:12.974Z,6.00
2019-02-28T01:01:12.508Z,6.10
2019-02-28T01:05:11.286Z,6.20
2019-02-28T01:09:10.142Z,6.30
2019-02-28T01:13:08.744Z,6.30
2019-02-28T01:17:07.347Z,6.20
2019-02-28T01:21:05.925Z,6.10
2019-02-28T01:25:07.395Z,6.10
2019-02-28T01:29:05.954Z,6.20
2019-02-28T01:33:04.603Z,6.20
2019-02-28T01:37:03.215Z,6.30
2019-02-28T01:41:01.794Z,6.30
2019-02-28T01:45:00.471Z,6.40
2019-02-28T01:48:59.060Z,6.30
2019-02-28T01:52:57.703Z,6.20
2019-02-28T01:56:56.655Z,6.10
2019-02-28T02:00:57.370Z,6.00
2019-02-28T02:04:55.443Z,6.00
2019-02-28T02:08:54.052Z,6.00
2019-02-28T02:12:59.179Z,6.00
2019-02-28T02:17:01.055Z,6.20
2019-02-28T02:21:00.162Z,6.60
2019-02-28T02:24:59.440Z,7.00
2019-02-28T02:29:01.204Z,7.30
2019-02-28T02:32:59.693Z,7.40
2019-02-28T02:36:58.246Z,7.30
2019-02-28T02:41:00.385Z,7.40
2019-02-28T02:44:59.125Z,7.40
2019-02-28T02:48:57.746Z,7.20
2019-02-28T02:52:56.457Z,7.20
2019-02-28T02:56:55.069Z,7.20
2019-02-28T03:00:53.699Z,7.40
2019-02-28T03:04:57.988Z,7.20
2019-02-28T03:08:52.562Z,7.00
2019-02-28T03:12:53.499Z,6.90
2019-02-28T03:16:52.468Z,6.90
2019-02-28T03:20:51.071Z,6.90
2019-02-28T03:24:51.006Z,7.00
2019-02-28T03:28:50.884Z,7.00
2019-02-28T03:32:49.576Z,7.00
2019-02-28T03:36:55.169Z,7.00
2019-02-28T03:40:48.356Z,6.90
2019-02-28T03:44:46.964Z,6.90
2019-02-28T03:48:45.900Z,6.90
2019-02-28T03:52:45.028Z,6.90
2019-02-28T03:56:51.098Z,6.70
2019-02-28T04:00:44.342Z,6.60
2019-02-28T04:04:50.202Z,6.60
2019-02-28T04:08:45.728Z,6.60
2019-02-28T04:12:45.752Z,6.60
2019-02-28T04:16:44.640Z,6.50
2019-02-28T04:20:43.183Z,6.30
2019-02-28T04:24:46.216Z,6.40
2019-02-28T04:28:42.042Z,6.40
2019-02-28T04:32:40.618Z,6.50
2019-02-28T04:36:39.223Z,6.60
2019-02-28T04:40:38.891Z,6.60
2019-02-28T04:44:42.754Z,6.60
2019-02-28T04:48:41.367Z,6.60
2019-02-28T04:52:39.996Z,6.60
2019-02-28T04:56:39.104Z,6.80
2019-02-28T05:00:38.881Z,6.80
2019-02-28T05:04:37.731Z,6.80
2019-02-28T05:08:38.881Z,6.80
2019-02-28T05:12:40.015Z,6.80
2019-02-28T05:16:36.769Z,6.80
2019-02-28T05:20:35.451Z,6.70
2019-02-28T05:24:53.286Z,6.60
2019-02-28T05:28:51.901Z,6.60
2019-02-28T05:32:50.513Z,6.60
2019-02-28T05:36:49.067Z,6.60
2019-02-28T05:40:47.677Z,6.60
2019-02-28T05:44:46.219Z,6.60
2019-02-28T05:48:44.861Z,6.60
2019-02-28T05:52:44.622Z,6.60
2019-02-28T05:56:43.234Z,6.60
2019-02-28T06:00:41.838Z,6.60
2019-02-28T06:04:40.604Z,6.60
2019-02-28T06:08:42.657Z,6.60
2019-02-28T06:12:43.805Z,6.50
2019-02-28T06:16:46.177Z,6.40
2019-02-28T06:20:41.849Z,6.40
2019-02-28T06:24:44.839Z,6.40
2019-02-28T06:28:42.218Z,6.40
2019-02-28T06:32:40.825Z,6.30
2019-02-28T06:36:39.431Z,6.30
2019-02-28T06:40:38.401Z,6.10
2019-02-28T06:44:37.011Z,6.10
2019-02-28T06:48:35.586Z,6.10
2019-02-28T06:52:34.153Z,6.10
2019-02-28T06:56:32.959Z,6.10
2019-02-28T07:00:31.545Z,6.10
2019-02-28T07:04:30.145Z,6.00
2019-02-28T07:08:29.075Z,6.10
2019-02-28T07:12:29.829Z,6.10
2019-02-28T07:16:30.641Z,6.20
2019-02-28T07:20:28.379Z,6.30
2019-02-28T07:24:26.943Z,6.40
2019-02-28T07:28:25.834Z,6.40
2019-02-28T07:32:26.156Z,6.60
2019-02-28T07:36:24.652Z,6.60
2019-02-28T07:40:23.344Z,6.80
2019-02-28T07:44:22.417Z,6.80
2019-02-28T07:48:26.856Z,6.80
2019-02-28T07:52:21.743Z,6.90
2019-02-28T07:56:20.899Z,7.00
2019-02-28T08:00:22.186Z,7.10
2019-02-28T08:04:20.756Z,7.20
2019-02-28T08:08:23.433Z,7.30
2019-02-28T08:12:22.442Z,7.40
2019-02-28T08:16:21.077Z,7.50
2019-02-28T08:20:20.839Z,7.70
2019-02-28T08:24:19.424Z,7.80
2019-02-28T08:28:18.373Z,7.90
2019-02-28T08:32:16.969Z,8.00
2019-02-28T08:36:15.553Z,8.10
2019-02-28T08:40:16.947Z,8.20
2019-02-28T08:44:15.698Z,8.30
2019-02-28T08:48:14.299Z,8.40
2019-02-28T08:52:13.891Z,8.50
2019-02-28T08:56:14.075Z,8.70
2019-02-28T09:00:18.761Z,8.60
2019-02-28T09:04:17.374Z,8.80
2019-02-28T09:08:15.977Z,8.80
2019-02-28T09:12:14.665Z,9.00
2019-02-28T09:16:16.426Z,9.10
2019-02-28T09:20:16.064Z,9.20
2019-02-28T09:24:14.892Z,9.40
2019-02-28T09:28:15.183Z,9.60
2019-02-28T09:32:14.797Z,9.80
2019-02-28T09:36:13.411Z,10.10
2019-02-28T09:40:16.265Z,10.30
2019-02-28T09:44:17.605Z,10.40
2019-02-28T09:48:19.162Z,10.60
2019-02-28T09:52:19.896Z,10.60
2019-02-28T09:56:19.480Z,10.70
2019-02-28T10:00:22.573Z,10.90
2019-02-28T10:04:22.933Z,11.00
2019-02-28T10:08:21.899Z,11.00
2019-02-28T10:12:20.503Z,10.90
2019-02-28T10:16:21.178Z,11.00
2019-02-28T10:20:26.332Z,11.20
2019-02-28T10:24:24.541Z,11.40
2019-02-28T10:28:22.889Z,11.50
2019-02-28T10:32:23.374Z,11.50
2019-02-28T10:36:21.985Z,11.60
2019-02-28T10:40:25.237Z,11.70
2019-02-28T10:44:23.841Z,11.80
2019-02-28T10:48:22.563Z,11.90
2019-02-28T10:52:23.502Z,12.10
2019-02-28T10:56:21.533Z,12.20
2019-02-28T11:00:39.785Z,12.30
2019-02-28T11:04:42.811Z,12.60
2019-02-28T11:08:41.204Z,12.80
2019-02-28T11:12:39.868Z,13.00
2019-02-28T11:16:38.588Z,13.10
2019-02-28T11:20:38.275Z,13.10
2019-02-28T11:24:36.907Z,13.00
2019-02-28T11:28:35.562Z,13.00
2019-02-28T11:32:34.303Z,13.10
2019-02-28T11:36:33.994Z,13.30
2019-02-28T11:40:34.248Z,13.50
2019-02-28T11:44:35.433Z,13.60
2019-02-28T11:48:34.074Z,13.50
2019-02-28T11:52:33.050Z,13.50
2019-02-28T11:56:31.727Z,13.40
2019-02-28T12:00:36.809Z,13.40
2019-02-28T12:04:37.495Z,13.50
2019-02-28T12:08:35.827Z,13.50
2019-02-28T12:12:34.439Z,13.50
2019-02-28T12:16:33.063Z,13.60
2019-02-28T12:20:31.745Z,13.70
2019-02-28T12:24:32.323Z,13.70
2019-02-28T12:28:35.200Z,13.80
2019-02-28T12:32:33.017Z,13.80
2019-02-28T12:36:31.782Z,14.00
2019-02-28T12:40:35.325Z,14.10
2019-02-28T12:44:33.940Z,14.20
2019-02-28T12:48:32.863Z,14.30
2019-02-28T12:52:34.189Z,14.30
2019-02-28T12:56:32.871Z,14.10
2019-02-28T13:00:42.700Z,14.20
2019-02-28T13:04:44.376Z,14.00
2019-02-28T13:08:42.963Z,13.90
2019-02-28T13:12:44.348Z,14.00
2019-02-28T13:16:41.803Z,14.10
2019-02-28T13:20:40.917Z,14.00
2019-02-28T13:24:42.400Z,14.00
2019-02-28T13:28:39.826Z,14.10
2019-02-28T13:32:39.233Z,14.00
2019-02-28T13:36:38.236Z,13.90
2019-02-28T13:40:36.981Z,14.20
2019-02-28T13:44:36.375Z,14.70
2019-02-28T13:48:42.977Z,14.90
2019-02-28T13:52:41.708Z,14.80
2019-02-28T13:56:40.808Z,14.80
2019-02-28T14:00:45.799Z,14.60
2019-02-28T14:04:40.213Z,14.50
2019-02-28T14:08:38.845Z,14.70
2019-02-28T14:12:38.990Z,15.10
2019-02-28T14:16:37.641Z,14.70
2019-02-28T14:20:36.307Z,14.30
2019-02-28T14:24:34.909Z,14.10
2019-02-28T14:28:35.634Z,13.50
2019-02-28T14:32:34.299Z,13.00
2019-02-28T14:36:32.898Z,12.70
2019-02-28T14:40:34.146Z,12.30
2019-02-28T14:44:32.820Z,11.80
2019-02-28T14:48:31.474Z,11.50
2019-02-28T14:52:30.086Z,11.20
2019-02-28T14:56:28.766Z,11.10
2019-02-28T15:00:29.567Z,11.00
2019-02-28T15:04:28.660Z,10.90
2019-02-28T15:08:27.340Z,10.90
2019-02-28T15:12:26.081Z,10.90
2019-02-28T15:16:26.638Z,10.90
2019-02-28T15:20:31.531Z,10.90
2019-02-28T15:24:26.231Z,10.80
2019-02-28T15:28:24.825Z,10.80
2019-02-28T15:36:41.382Z,10.80
2019-02-28T15:40:49.001Z,10.80
2019-02-28T15:44:48.713Z,10.80
2019-02-28T15:48:51.284Z,10.80
2019-02-28T15:52:50.434Z,10.80
2019-02-28T15:56:51.787Z,10.90
2019-02-28T16:00:49.611Z,10.90
2019-02-28T16:04:49.236Z,11.00
2019-02-28T16:08:47.965Z,11.00
2019-02-28T16:12:50.128Z,11.00
2019-02-28T16:16:47.060Z,11.00
2019-02-28T16:20:45.647Z,11.10
2019-02-28T16:24:44.314Z,11.00
2019-02-28T16:28:43.457Z,11.00
2019-02-28T16:32:45.493Z,10.90
2019-02-28T16:36:42.986Z,10.90
2019-02-28T16:40:42.616Z,10.90
2019-02-28T16:44:41.521Z,10.90
2019-02-28T16:48:40.302Z,10.90
2019-02-28T16:52:41.671Z,10.80
2019-02-28T16:56:40.322Z,10.80
2019-02-28T17:00:42.239Z,10.80
2019-02-28T17:04:42.337Z,10.80
2019-02-28T17:08:42.639Z,10.80
2019-02-28T17:12:42.884Z,10.80
2019-02-28T17:16:45.954Z,10.80
2019-02-28T17:20:45.393Z,10.80
2019-02-28T17:24:46.069Z,10.70
2019-02-28T17:28:46.539Z,10.70
2019-02-28T17:32:49.563Z,10.60
2019-02-28T17:36:51.285Z,10.60
2019-02-28T17:40:49.884Z,10.60
2019-02-28T17:45:01.378Z,10.70
2019-02-28T17:49:19.482Z,10.70
2019-02-28T17:53:35.490Z,10.70
2019-02-28T17:57:37.637Z,10.70
2019-02-28T18:01:48.342Z,10.80
2019-02-28T18:06:08.806Z,10.80
2019-02-28T18:10:30.854Z,10.80
2019-02-28T18:14:54.304Z,10.80
2019-02-28T18:19:18.191Z,10.80
2019-02-28T18:23:35.197Z,10.70
2019-02-28T18:27:53.502Z,10.70
2019-02-28T18:31:53.873Z,10.70
2019-02-28T18:35:53.327Z,10.60
2019-02-28T18:39:51.918Z,10.50
2019-02-28T18:43:50.487Z,10.50
2019-02-28T18:47:49.111Z,10.40
2019-02-28T18:51:47.933Z,10.40
2019-02-28T18:55:46.459Z,10.40
2019-02-28T18:59:45.435Z,10.40
2019-02-28T19:03:44.680Z,10.30
2019-02-28T19:07:46.541Z,10.30
2019-02-28T19:11:46.250Z,10.20
2019-02-28T19:15:50.042Z,10.00
2019-02-28T19:19:48.620Z,9.90
2019-02-28T19:23:47.226Z,10.10
2019-02-28T19:27:45.812Z,10.00
2019-02-28T19:32:13.673Z,10.00
2019-02-28T19:36:12.419Z,10.10
2019-02-28T19:40:12.628Z,10.10
2019-02-28T19:44:11.241Z,10.10
2019-02-28T19:48:09.814Z,10.20
2019-02-28T19:52:08.530Z,10.20
2019-02-28T19:56:07.182Z,10.20
2019-02-28T20:00:15.019Z,10.20
2019-02-28T20:04:15.385Z,10.20
2019-02-28T20:08:18.612Z,10.10
2019-02-28T20:12:14.773Z,10.10
2019-02-28T20:16:13.371Z,10.00
2019-02-28T20:20:29.210Z,9.80
2019-02-28T20:24:29.208Z,9.70
2019-02-28T20:28:27.982Z,9.70
2019-02-28T20:32:26.549Z,9.70
2019-02-28T20:36:25.284Z,9.60
2019-02-28T20:40:29.711Z,9.60
2019-02-28T20:44:28.300Z,9.60
2019-02-28T20:48:29.663Z,9.60
2019-02-28T20:52:28.308Z,9.60
2019-02-28T20:56:26.878Z,9.50
2019-02-28T21:00:26.899Z,9.60
2019-02-28T21:04:25.619Z,9.40
2019-02-28T21:08:24.267Z,9.40
2019-02-28T21:12:22.850Z,9.50
2019-02-28T21:16:22.204Z,9.40
2019-02-28T21:20:20.984Z,9.50
2019-02-28T21:24:19.529Z,9.50
2019-02-28T21:28:18.635Z,9.40
2019-02-28T21:32:17.217Z,9.30
